Time;durP1;ratioP1;P1;durP2;ratioP2;P2;SDS_P1;SDS_P2;PMS_P1;PMS_P2;Temp;Humidity;BMP_temperature;BMP_pressure;BME280_temperature;BME280_humidity;BME280_pressure;Samples;Min_cycle;Max_cycle;Signal;HPM_P1;HPM_P2
2021/08/06 00:02:56;;;;;;;1.20;0.77;;;;;;;15.91;93.46;98340.28;2006103;78;34236;-78
2021/08/06 00:05:58;;;;;;;2.16;0.95;;;;;;;15.93;93.62;98333.22;2006427;80;20165;-77
2021/08/06 00:09:02;;;;;;;2.97;0.84;;;;;;;15.96;93.55;98329.59;2007253;80;20241;-78
2021/08/06 00:12:06;;;;;;;4.14;1.10;;;;;;;15.97;93.51;98324.31;2007719;80;20198;-78
2021/08/06 00:15:09;;;;;;;2.19;1.10;;;;;;;16.00;93.43;98333.81;2006540;80;20195;-78
2021/08/06 00:18:12;;;;;;;4.19;1.19;;;;;;;16.04;93.42;98327.53;2024522;77;21035;-78
2021/08/06 00:21:14;;;;;;;2.70;1.05;;;;;;;16.04;93.27;98324.91;2023035;80;20159;-78
2021/08/06 00:24:17;;;;;;;1.83;1.00;;;;;;;16.09;93.09;98327.31;2024716;80;20964;-78
2021/08/06 00:27:19;;;;;;;2.76;1.08;;;;;;;16.12;93.00;98327.19;2026817;79;20707;-78
2021/08/06 00:30:22;;;;;;;3.46;0.90;;;;;;;16.15;92.82;98322.66;2020393;78;20523;-78
2021/08/06 00:33:25;;;;;;;1.99;1.00;;;;;;;16.12;93.07;98324.56;2007355;80;20207;-78
2021/08/06 00:36:27;;;;;;;1.38;1.14;;;;;;;16.11;93.25;98325.47;2007480;80;20705;-78
2021/08/06 00:39:30;;;;;;;4.90;1.20;;;;;;;16.14;93.37;98325.34;2008334;80;20243;-79
2021/08/06 00:42:33;;;;;;;2.44;0.90;;;;;;;16.15;93.47;98306.09;2015493;80;20253;-79
2021/08/06 00:45:35;;;;;;;1.69;1.04;;;;;;;16.20;92.97;98288.41;2009232;77;20902;-78
2021/08/06 00:48:38;;;;;;;3.00;0.91;;;;;;;16.24;92.90;98288.22;2023842;80;20253;-78
2021/08/06 00:51:41;;;;;;;5.59;1.30;;;;;;;16.26;92.84;98294.22;2022824;80;20191;-77
2021/08/06 00:54:44;;;;;;;1.98;0.90;;;;;;;16.22;92.94;98295.28;2022296;80;20199;-78
2021/08/06 00:57:47;;;;;;;4.04;0.95;;;;;;;16.20;93.23;98297.13;2028448;80;20299;-80
2021/08/06 01:00:50;;;;;;;2.51;0.95;;;;;;;16.18;93.55;98301.59;2029466;79;29401;-79
2021/08/06 01:04:15;;;;;;;5.13;1.01;;;;;;;16.20;93.71;98291.88;2028397;80;20179;-80
2021/08/06 01:07:23;;;;;;;4.46;1.00;;;;;;;16.23;93.40;98283.88;2027199;80;20259;-79
2021/08/06 01:10:57;;;;;;;4.96;0.80;;;;;;;16.26;93.06;98270.66;2023361;80;20676;-77
2021/08/06 01:14:06;;;;;;;3.50;1.00;;;;;;;16.29;92.99;98273.13;2024390;80;20187;-76
2021/08/06 01:17:13;;;;;;;2.26;1.00;;;;;;;16.28;93.29;98268.81;2008832;77;21374;-76
2021/08/06 01:20:23;;;;;;;3.09;0.89;;;;;;;16.28;93.42;98274.03;2006960;80;20591;-77
2021/08/06 01:23:30;;;;;;;4.46;0.90;;;;;;;16.25;93.53;98270.72;2006651;80;20193;-77
2021/08/06 01:26:33;;;;;;;4.21;0.84;;;;;;;16.22;93.65;98276.09;2006712;80;20172;-77
2021/08/06 01:29:35;;;;;;;4.07;0.90;;;;;;;16.20;93.85;98281.41;2006961;80;20955;-78
2021/08/06 01:32:39;;;;;;;2.01;0.91;;;;;;;16.22;93.94;98281.34;2019437;77;23712;-80
2021/08/06 01:35:42;;;;;;;5.59;0.91;;;;;;;16.24;94.07;98277.72;2037109;79;20218;-79
2021/08/06 01:38:45;;;;;;;2.05;0.99;;;;;;;16.26;93.82;98281.13;2029685;80;20644;-77
2021/08/06 01:42:09;;;;;;;3.97;0.90;;;;;;;16.25;93.91;98283.81;2027753;80;20238;-77
2021/08/06 01:45:20;;;;;;;5.41;0.84;;;;;;;16.25;93.97;98274.19;2027375;79;20174;-76
2021/08/06 01:48:29;;;;;;;2.50;0.99;;;;;;;16.27;93.81;98267.09;2029254;79;20231;-77
2021/08/06 01:51:34;;;;;;;2.58;0.84;;;;;;;16.31;93.35;98270.44;2027740;80;20730;-77
2021/08/06 01:54:38;;;;;;;2.13;0.99;;;;;;;16.34;93.06;98267.69;2027899;80;20194;-76
2021/08/06 01:57:47;;;;;;;2.20;1.20;;;;;;;16.35;92.99;98271.16;2028285;79;20411;-76
2021/08/06 02:00:53;;;;;;;3.88;0.90;;;;;;;16.34;92.98;98259.84;2026840;77;21501;-76
2021/08/06 02:03:56;;;;;;;3.29;1.25;;;;;;;16.35;93.10;98255.44;2029111;80;20186;-76
2021/08/06 02:06:59;;;;;;;5.09;0.94;;;;;;;16.35;93.23;98258.91;2029082;80;20224;-76
2021/08/06 02:10:03;;;;;;;4.74;1.00;;;;;;;16.35;93.23;98253.69;2028778;80;20186;-76
2021/08/06 02:13:06;;;;;;;1.70;0.98;;;;;;;16.35;93.26;98263.31;2029378;80;20688;-76
2021/08/06 02:16:10;;;;;;;1.74;1.11;;;;;;;16.36;93.15;98265.84;2020239;78;20967;-76
2021/08/06 02:19:15;;;;;;;2.01;1.05;;;;;;;16.37;92.87;98261.47;2007509;80;20189;-76
2021/08/06 02:22:19;;;;;;;1.65;1.09;;;;;;;16.37;92.86;98270.16;2007603;80;20177;-76
2021/08/06 02:25:23;;;;;;;1.64;0.90;;;;;;;16.36;93.03;98258.00;2008148;80;20230;-76
2021/08/06 02:28:26;;;;;;;1.39;0.94;;;;;;;16.37;92.84;98250.97;2008869;80;20694;-76
2021/08/06 02:31:29;;;;;;;2.55;0.95;;;;;;;16.40;92.89;98254.31;2018441;77;20582;-75
2021/08/06 02:34:32;;;;;;;3.39;0.75;;;;;;;16.41;92.94;98245.53;2029876;79;20307;-75
2021/08/06 02:37:38;;;;;;;1.60;0.84;;;;;;;16.41;92.90;98250.75;2030301;79;20639;-75
2021/08/06 02:40:43;;;;;;;4.09;0.90;;;;;;;16.42;92.91;98243.75;2029822;79;20284;-75
2021/08/06 02:43:45;;;;;;;1.75;0.77;;;;;;;16.41;93.06;98242.06;2029494;79;20171;-75
2021/08/06 02:46:48;;;;;;;3.64;0.81;;;;;;;16.38;93.09;98231.72;2016272;78;20253;-75
2021/08/06 02:49:51;;;;;;;3.59;0.84;;;;;;;16.37;93.17;98237.88;2008189;80;20173;-76
2021/08/06 02:52:53;;;;;;;2.04;0.82;;;;;;;16.36;93.06;98242.28;2008122;80;20238;-75
2021/08/06 02:55:56;;;;;;;5.14;0.90;;;;;;;16.33;93.07;98235.38;2008569;80;20265;-75
2021/08/06 02:58:59;;;;;;;0.99;0.77;;;;;;;16.32;93.35;98231.06;2008212;80;20728;-76
2021/08/06 03:02:01;;;;;;;1.40;0.85;;;;;;;16.32;93.42;98233.69;2021840;77;21326;-75
2021/08/06 03:05:04;;;;;;;4.09;0.98;;;;;;;16.35;93.50;98226.63;2028446;79;20938;-75
2021/08/06 03:08:07;;;;;;;2.99;0.71;;;;;;;16.36;93.55;98223.09;2029357;79;20298;-76
2021/08/06 03:11:10;;;;;;;4.85;0.91;;;;;;;16.33;93.56;98227.53;2028209;79;20834;-75
2021/08/06 03:14:13;;;;;;;1.75;0.79;;;;;;;16.36;93.58;98230.94;2028853;79;20175;-76
2021/08/06 03:17:15;;;;;;;2.01;0.90;;;;;;;16.32;93.54;98225.81;2011590;78;24430;-75
2021/08/06 03:20:22;;;;;;;4.44;1.01;;;;;;;16.35;93.51;98224.00;2006685;80;20178;-75
2021/08/06 03:23:24;;;;;;;8.82;0.90;;;;;;;16.30;93.67;98225.03;2007631;80;20197;-75
2021/08/06 03:26:27;;;;;;;2.21;0.80;;;;;;;16.33;93.79;98226.66;2007088;80;20860;-75
2021/08/06 03:29:30;;;;;;;0.93;0.81;;;;;;;16.33;93.75;98221.44;2006371;80;20273;-75
2021/08/06 03:32:32;;;;;;;2.94;1.10;;;;;;;16.33;93.76;98213.56;2025189;77;20331;-76
2021/08/06 03:35:35;;;;;;;1.79;0.80;;;;;;;16.34;93.74;98223.16;2027556;79;21145;-75
2021/08/06 03:38:38;;;;;;;2.45;0.68;;;;;;;16.32;93.45;98217.97;2028622;79;20162;-76
2021/08/06 03:41:40;;;;;;;1.44;0.69;;;;;;;16.33;93.44;98218.81;2028312;79;20170;-75
2021/08/06 03:44:43;;;;;;;4.68;0.77;;;;;;;16.30;93.51;98227.66;2028423;79;20242;-76
2021/08/06 03:47:46;;;;;;;4.66;0.91;;;;;;;16.28;93.62;98233.91;2007851;77;25099;-76
2021/08/06 03:50:49;;;;;;;1.34;0.73;;;;;;;16.27;93.82;98232.19;2007027;80;20217;-75
2021/08/06 03:53:52;;;;;;;2.54;0.80;;;;;;;16.25;93.87;98229.66;2007681;80;20251;-76
2021/08/06 03:56:54;;;;;;;2.46;0.85;;;;;;;16.25;94.12;98228.81;2006815;80;20165;-76
2021/08/06 03:59:57;;;;;;;1.99;0.88;;;;;;;16.24;94.28;98219.25;2006888;80;20176;-76
2021/08/06 04:02:59;;;;;;;1.13;0.90;;;;;;;16.25;94.40;98213.09;2026982;77;23767;-76
2021/08/06 04:06:02;;;;;;;2.60;1.00;;;;;;;16.24;94.40;98217.47;2027829;79;20224;-76
2021/08/06 04:09:05;;;;;;;1.75;0.90;;;;;;;16.23;94.47;98226.25;2028152;79;20255;-76
2021/08/06 04:12:07;;;;;;;4.86;0.90;;;;;;;16.23;94.44;98228.88;2028404;79;20829;-77
2021/08/06 04:15:10;;;;;;;2.41;0.81;;;;;;;16.23;94.52;98233.28;2026959;79;20385;-76
2021/08/06 04:18:13;;;;;;;3.56;0.95;;;;;;;16.26;94.48;98225.28;2006577;78;34434;-77
2021/08/06 04:21:15;;;;;;;3.10;0.80;;;;;;;16.27;94.37;98224.34;2006324;80;20687;-77
2021/08/06 04:24:18;;;;;;;2.09;0.90;;;;;;;16.28;94.46;98228.66;2007373;80;20199;-76
2021/08/06 04:27:21;;;;;;;1.66;0.80;;;;;;;16.26;94.40;98238.38;2006664;80;20961;-76
2021/08/06 04:30:23;;;;;;;4.40;0.91;;;;;;;16.25;94.65;98231.44;2008896;77;25810;-76
2021/08/06 04:33:27;;;;;;;4.22;0.90;;;;;;;16.27;94.61;98232.19;2027915;79;20300;-76
2021/08/06 04:36:30;;;;;;;3.08;0.74;;;;;;;16.27;94.53;98240.06;2027751;79;20178;-76
2021/08/06 04:39:32;;;;;;;1.84;0.75;;;;;;;16.27;94.61;98238.28;2028515;79;20226;-76
2021/08/06 04:42:35;;;;;;;5.06;0.79;;;;;;;16.27;94.49;98248.78;2028183;79;20210;-77
2021/08/06 04:45:38;;;;;;;2.30;0.82;;;;;;;16.26;94.77;98249.69;2021746;77;34466;-79
2021/08/06 04:48:41;;;;;;;3.63;0.80;;;;;;;16.28;94.80;98249.63;2004694;80;20258;-76
2021/08/06 04:51:44;;;;;;;3.53;0.90;;;;;;;16.28;94.83;98250.47;2006739;80;20238;-78
2021/08/06 04:54:46;;;;;;;3.13;0.80;;;;;;;16.26;94.79;98244.44;2006925;80;20766;-76
2021/08/06 04:57:50;;;;;;;1.90;0.77;;;;;;;16.28;94.95;98247.00;2006448;80;20558;-76
2021/08/06 05:00:52;;;;;;;3.53;0.98;;;;;;;16.29;94.86;98251.31;2012076;77;22043;-76
2021/08/06 05:03:55;;;;;;;2.50;0.79;;;;;;;16.27;94.77;98261.00;2028123;79;20174;-76
2021/08/06 05:06:58;;;;;;;4.44;0.79;;;;;;;16.25;94.68;98261.09;2027614;79;20174;-76
2021/08/06 05:10:00;;;;;;;4.35;0.70;;;;;;;16.26;94.83;98260.16;2028046;79;20163;-76
2021/08/06 05:13:03;;;;;;;2.21;0.79;;;;;;;16.24;94.83;98262.00;2027696;79;20208;-76
2021/08/06 05:16:05;;;;;;;2.29;0.82;;;;;;;16.27;94.87;98264.50;2019852;76;23007;-75
2021/08/06 05:19:08;;;;;;;3.20;0.90;;;;;;;16.26;94.80;98257.56;2006314;80;20185;-76
2021/08/06 05:22:11;;;;;;;4.14;0.70;;;;;;;16.29;94.75;98261.78;2006487;80;20189;-76
2021/08/06 05:25:13;;;;;;;3.13;0.80;;;;;;;16.33;94.65;98264.19;2007055;80;20272;-76
2021/08/06 05:28:16;;;;;;;4.06;0.80;;;;;;;16.37;94.54;98257.06;2006551;80;20233;-77
2021/08/06 05:31:19;;;;;;;3.79;0.76;;;;;;;16.41;94.52;98263.88;2015028;77;21507;-77
2021/08/06 05:34:22;;;;;;;5.10;0.80;;;;;;;16.46;94.25;98271.50;2028061;79;20207;-78
2021/08/06 05:37:25;;;;;;;4.16;1.01;;;;;;;16.51;94.09;98274.75;2028083;80;20594;-77
2021/08/06 05:40:27;;;;;;;1.81;0.95;;;;;;;16.51;93.84;98286.09;2028471;80;20198;-76
2021/08/06 05:43:30;;;;;;;6.41;1.17;;;;;;;16.54;93.70;98293.84;2027311;79;20214;-76
2021/08/06 05:46:32;;;;;;;5.16;0.81;;;;;;;16.55;93.33;98294.69;2016176;78;23108;-77
2021/08/06 05:49:35;;;;;;;3.39;0.95;;;;;;;16.56;93.25;98299.00;2006626;80;20913;-76
2021/08/06 05:52:38;;;;;;;3.47;1.17;;;;;;;16.61;93.25;98303.09;2005781;80;20177;-76
2021/08/06 05:55:40;;;;;;;4.43;0.73;;;;;;;16.65;93.25;98302.94;2006589;80;20275;-76
2021/08/06 05:58:43;;;;;;;2.42;0.77;;;;;;;16.64;92.83;98312.59;2006746;80;20205;-77
2021/08/06 06:01:46;;;;;;;7.14;0.99;;;;;;;16.65;92.73;98306.41;2019055;76;22672;-78
2021/08/06 06:04:48;;;;;;;2.41;0.61;;;;;;;16.68;92.63;98305.47;2028759;79;20239;-78
2021/08/06 06:07:51;;;;;;;3.44;0.84;;;;;;;16.67;92.59;98306.38;2029101;79;20271;-77
2021/08/06 06:10:54;;;;;;;5.28;0.95;;;;;;;16.68;92.91;98308.06;2029026;79;20225;-77
2021/08/06 06:14:00;;;;;;;3.89;0.81;;;;;;;16.70;92.74;98304.50;2028818;79;20616;-77
2021/08/06 06:17:03;;;;;;;3.58;0.77;;;;;;;16.79;92.83;98301.41;2013064;78;20844;-76
2021/08/06 06:20:06;;;;;;;2.40;0.77;;;;;;;16.81;92.73;98303.97;2007108;80;20312;-76
2021/08/06 06:23:09;;;;;;;1.60;0.60;;;;;;;16.81;92.57;98312.69;2007710;80;20217;-76
2021/08/06 06:26:11;;;;;;;0.68;0.57;;;;;;;16.81;92.34;98312.69;2008309;80;20198;-76
2021/08/06 06:29:14;;;;;;;4.95;0.75;;;;;;;16.85;92.48;98310.75;2007514;80;20181;-76
2021/08/06 06:32:16;;;;;;;3.72;0.86;;;;;;;16.89;92.70;98312.34;2006742;78;20899;-76
2021/08/06 06:35:19;;;;;;;1.65;0.70;;;;;;;16.90;92.40;98308.78;2007674;80;20174;-76
2021/08/06 06:38:22;;;;;;;4.24;0.60;;;;;;;16.92;92.31;98313.03;2007628;80;20169;-76
2021/08/06 06:41:25;;;;;;;2.91;0.77;;;;;;;17.00;91.91;98314.44;2007635;80;20186;-76
2021/08/06 06:44:27;;;;;;;4.51;0.79;;;;;;;17.04;91.75;98324.69;2006974;80;20200;-76
2021/08/06 06:47:37;;;;;;;2.09;0.76;;;;;;;17.07;91.34;98326.34;2007507;77;20834;-76
2021/08/06 06:50:40;;;;;;;4.68;0.90;;;;;;;17.08;91.30;98328.91;2007506;80;20203;-77
2021/08/06 06:53:43;;;;;;;4.60;0.85;;;;;;;17.09;90.73;98340.25;2007590;80;20195;-77
2021/08/06 06:56:46;;;;;;;3.22;1.10;;;;;;;17.09;90.93;98335.84;2006870;80;20191;-77
2021/08/06 06:59:48;;;;;;;4.40;0.95;;;;;;;17.31;nan;98337.44;2007290;80;20177;-77
2021/08/06 07:02:51;;;;;;;5.85;1.08;;;;;;;17.46;91.08;98342.78;2006982;78;24304;-78
2021/08/06 07:05:53;;;;;;;3.83;1.00;;;;;;;17.58;90.70;98345.72;2007592;80;20945;-78
2021/08/06 07:08:56;;;;;;;2.69;0.80;;;;;;;17.58;90.38;98346.56;2007814;80;20169;-78
2021/08/06 07:11:58;;;;;;;3.80;0.90;;;;;;;17.56;89.80;98352.81;2006547;80;20165;-78
2021/08/06 07:15:04;;;;;;;5.19;0.81;;;;;;;17.52;88.94;98355.59;2006378;80;20772;-79
2021/08/06 07:18:10;;;;;;;5.36;0.90;;;;;;;17.46;88.54;98357.69;2006718;77;23582;-79
2021/08/06 07:21:13;;;;;;;4.63;0.80;;;;;;;17.35;88.43;98358.19;2007835;80;20273;-81
2021/08/06 07:24:15;;;;;;;3.97;0.84;;;;;;;17.24;88.54;98363.13;2010365;80;20190;-78
2021/08/06 07:27:18;;;;;;;4.14;0.91;;;;;;;17.15;88.86;98358.31;2007375;80;20173;-78
2021/08/06 07:30:21;;;;;;;4.56;0.94;;;;;;;17.15;89.73;98364.41;2008028;77;23093;-77
2021/08/06 07:33:24;;;;;;;4.07;0.80;;;;;;;17.14;89.73;98364.47;2025400;79;20231;-77
2021/08/06 07:36:27;;;;;;;2.14;0.60;;;;;;;17.17;89.77;98372.19;2028188;79;20209;-76
2021/08/06 07:39:29;;;;;;;2.50;0.70;;;;;;;17.26;89.08;98377.03;2028277;79;20199;-78
2021/08/06 07:42:32;;;;;;;3.20;0.60;;;;;;;17.53;89.31;98375.66;2028048;79;20249;-78
2021/08/06 07:45:34;;;;;;;4.80;0.66;;;;;;;17.67;88.10;98396.00;2024058;78;28124;-78
2021/08/06 07:48:37;;;;;;;2.75;0.56;;;;;;;17.75;88.24;98396.50;2007371;80;20267;-79
2021/08/06 07:51:40;;;;;;;1.55;0.52;;;;;;;17.83;87.21;98398.75;2087475;70;20232;-81
2021/08/06 07:54:46;;;;;;;1.39;0.60;;;;;;;17.80;85.84;98402.41;2004583;79;20254;-81
2021/08/06 07:58:17;;;;;;;2.55;0.50;;;;;;;17.81;86.08;98401.47;2003525;81;20194;-80
2021/08/06 08:01:21;;;;;;;3.26;0.50;;;;;;;17.87;85.74;98405.56;1583476;81;37926470;-81
2021/08/06 08:04:26;;;;;;;3.28;0.60;;;;;;;18.02;85.54;98410.03;2002213;80;20315;-81
2021/08/06 08:07:29;;;;;;;2.70;0.60;;;;;;;18.01;85.25;98420.63;2003967;81;20179;-81
2021/08/06 08:10:32;;;;;;;1.17;0.50;;;;;;;17.98;84.75;98419.00;2004101;81;20599;-81
2021/08/06 08:13:43;;;;;;;1.98;0.40;;;;;;;18.01;84.70;98416.22;2004143;81;20190;-80
2021/08/06 08:16:47;;;;;;;1.23;0.45;;;;;;;17.97;84.27;98409.44;2000711;78;29822;-80
2021/08/06 08:19:50;;;;;;;3.10;0.61;;;;;;;17.99;84.88;98410.19;2002989;81;20251;-81
2021/08/06 08:22:53;;;;;;;1.33;0.50;;;;;;;17.95;83.75;98416.50;2003368;81;20226;-80
2021/08/06 08:25:56;;;;;;;4.80;0.60;;;;;;;17.97;83.53;98430.44;2002133;81;20202;-80
2021/08/06 08:28:58;;;;;;;3.00;0.47;;;;;;;18.11;84.00;98422.69;2001366;81;20388;-83
2021/08/06 08:32:04;;;;;;;2.45;0.59;;;;;;;18.21;83.72;98422.25;2003289;78;24433;-81
2021/08/06 08:35:08;;;;;;;1.21;0.61;;;;;;;18.40;83.67;98429.13;2005801;81;20235;-82
2021/08/06 08:38:13;;;;;;;3.00;0.80;;;;;;;18.47;82.98;98428.78;2009330;80;20174;-81
2021/08/06 08:41:18;;;;;;;1.02;0.50;;;;;;;18.65;82.65;98430.50;2008130;81;20194;-81
2021/08/06 08:44:44;;;;;;;2.29;0.65;;;;;;;18.76;82.31;98445.72;2007165;81;20284;-81
2021/08/06 08:47:48;;;;;;;1.91;0.40;;;;;;;18.82;80.51;98443.59;1991205;81;994321;-80
2021/08/06 08:50:58;;;;;;;2.19;0.38;;;;;;;18.83;79.46;98447.06;2009583;81;20205;-81
2021/08/06 08:54:24;;;;;;;0.46;0.30;;;;;;;18.86;79.51;98452.19;2009235;80;20197;-80
2021/08/06 09:01:25;;;;;;;1.91;0.30;;;;;;;18.75;77.78;98447.50;2005543;70;69876;-82
2021/08/06 09:08:18;;;;;;;1.49;0.28;;;;;;;18.74;77.04;98450.22;2058499;70;20272;-79
2021/08/06 09:11:32;;;;;;;1.05;0.52;;;;;;;18.82;76.24;98456.75;2003635;81;20174;-79
2021/08/06 09:14:36;;;;;;;1.40;0.40;;;;;;;18.94;75.22;98457.91;2005071;81;20174;-79
2021/08/06 09:17:39;;;;;;;1.59;0.30;;;;;;;18.99;74.92;98448.81;1997746;78;313832;-79
2021/08/06 09:21:06;;;;;;;0.91;0.34;;;;;;;18.88;72.96;98445.94;2008397;81;20260;-80
2021/08/06 09:24:31;;;;;;;0.47;0.20;;;;;;;18.99;74.57;98438.28;2008358;80;20382;-83
2021/08/06 09:28:03;;;;;;;0.87;0.26;;;;;;;19.43;75.10;98435.03;2009324;81;20264;-80
2021/08/06 09:35:46;;;;;;;1.79;0.20;;;;;;;20.68;69.31;98426.91;2012900;79;20177;-81
2021/08/06 09:40:06;;;;;;;0.79;0.30;;;;;;;21.37;67.24;98420.88;2022011;80;20193;-82
2021/08/06 09:44:14;;;;;;;1.18;0.20;;;;;;;21.69;63.65;98430.19;2012840;80;20201;-82
2021/08/06 09:51:36;;;;;;;1.11;0.30;;;;;;;20.88;66.60;98425.69;2033294;69;20326;-83
2021/08/06 10:21:37;;;;;;;1.64;0.30;;;;;;;20.40;68.24;98427.69;2016654;70;20281;-80
2021/08/06 10:25:04;;;;;;;1.31;0.30;;;;;;;21.07;65.71;98424.44;2008595;80;20178;-81
2021/08/06 10:28:08;;;;;;;1.81;0.20;;;;;;;21.34;63.81;98421.03;2009548;80;20182;-81
2021/08/06 10:31:52;;;;;;;1.24;0.35;;;;;;;21.73;63.33;98420.28;2009723;80;20218;-82
2021/08/06 10:35:19;;;;;;;2.19;0.30;;;;;;;22.07;63.06;98432.13;2008160;80;20190;-80
2021/08/06 10:42:10;;;;;;;0.73;0.30;;;;;;;21.06;61.58;98435.09;2007106;70;20198;-82
2021/08/06 10:45:17;;;;;;;2.01;0.29;;;;;;;20.76;62.30;98445.75;2000643;80;20192;-81
2021/08/06 10:48:32;;;;;;;2.22;0.30;;;;;;;20.43;63.33;98446.84;2000463;80;20175;-83
2021/08/06 10:51:39;;;;;;;4.45;0.40;;;;;;;20.17;64.53;98465.97;2006625;80;20270;-82
2021/08/06 10:54:48;;;;;;;0.68;0.31;;;;;;;20.14;66.34;98456.44;2005643;80;20195;-83
2021/08/06 12:09:15;;;;;;;0.91;0.40;;;;;;;20.55;64.73;98465.53;2031077;70;20356;-84
2021/08/06 12:37:41;;;;;;;0.30;0.20;;;;;;;22.38;59.22;98443.31;2023952;70;20174;-83
2021/08/06 12:40:45;;;;;;;0.50;0.20;;;;;;;22.39;57.56;98440.56;2021648;80;20200;-84
2021/08/06 12:43:47;;;;;;;0.55;0.14;;;;;;;22.65;56.98;98453.81;2052688;70;20179;-85
2021/08/06 12:46:58;;;;;;;0.74;0.10;;;;;;;22.94;55.17;98443.88;2009438;79;20232;-83
2021/08/06 12:53:33;;;;;;;2.14;0.30;;;;;;;23.11;54.16;98440.88;2159294;70;20210;-83
2021/08/06 12:57:00;;;;;;;1.20;0.30;;;;;;;23.11;55.25;98439.09;2022449;70;20285;-85
2021/08/06 13:00:15;;;;;;;0.77;0.29;;;;;;;23.43;53.91;98442.09;2012772;81;20174;-83
2021/08/06 13:03:26;;;;;;;1.13;0.20;;;;;;;23.36;52.87;98442.66;2013512;80;20575;-84
2021/08/06 13:06:45;;;;;;;0.74;0.20;;;;;;;23.07;52.93;98440.25;2015870;81;20170;-84
2021/08/06 13:09:50;;;;;;;0.89;0.20;;;;;;;23.06;53.80;98441.22;2011912;80;20149;-83
2021/08/06 13:12:53;;;;;;;1.95;0.20;;;;;;;22.78;53.03;98446.72;2010858;81;20228;-83
2021/08/06 13:15:57;;;;;;;0.47;0.10;;;;;;;22.66;55.38;98452.88;2012961;80;20237;-83
2021/08/06 13:22:15;;;;;;;1.10;0.10;;;;;;;22.48;54.47;98447.88;2014480;70;20234;-81
2021/08/06 13:25:19;;;;;;;0.88;0.20;;;;;;;22.22;54.58;98454.91;2004494;80;20182;-81
2021/08/06 13:28:22;;;;;;;2.89;0.47;;;;;;;22.02;57.44;98440.34;2004278;81;20203;-81
2021/08/06 13:31:25;;;;;;;3.28;0.80;;;;;;;21.85;57.81;98445.88;2000573;78;256817;-82
2021/08/06 13:34:28;;;;;;;2.22;0.50;;;;;;;21.65;58.30;98441.06;2006617;81;20379;-82
2021/08/06 13:37:31;;;;;;;2.17;0.50;;;;;;;21.61;59.64;98442.22;2006601;81;20154;-82
2021/08/06 13:40:38;;;;;;;1.13;0.20;;;;;;;21.60;59.67;98443.16;2007877;81;20178;-82
2021/08/06 13:43:48;;;;;;;0.34;0.20;;;;;;;21.83;59.20;98442.50;2006311;81;20240;-84
2021/08/06 13:46:51;;;;;;;1.00;0.20;;;;;;;22.09;59.66;98440.84;2000414;81;1267362;-83
2021/08/06 13:50:11;;;;;;;1.52;0.30;;;;;;;22.48;54.69;98447.03;2016423;81;20249;-84
2021/08/06 13:56:42;;;;;;;1.11;0.10;;;;;;;22.50;51.96;98445.13;2031142;69;20206;-82
2021/08/06 14:07:10;;;;;;;0.59;0.10;;;;;;;22.77;54.81;98450.31;2027019;70;20187;-84
2021/08/06 14:10:44;;;;;;;3.15;0.10;;;;;;;22.83;54.91;98445.50;2005863;81;20213;-82
2021/08/06 14:17:14;;;;;;;0.36;0.10;;;;;;;22.63;54.86;98458.38;2082186;70;20186;-79
2021/08/06 14:20:22;;;;;;;0.26;0.10;;;;;;;22.45;55.31;98465.75;2012435;81;20209;-85
2021/08/06 14:23:29;;;;;;;0.71;0.10;;;;;;;22.29;56.81;98463.31;2008901;81;20275;-83
2021/08/06 14:26:32;;;;;;;1.99;0.10;;;;;;;21.97;56.72;98475.97;2009329;81;20217;-83
2021/08/06 14:29:40;;;;;;;0.54;0.16;;;;;;;21.63;58.01;98472.88;2011017;81;20212;-84
2021/08/06 14:32:44;;;;;;;0.88;0.17;;;;;;;21.10;58.72;98471.78;2000139;81;968972;-83
2021/08/06 14:35:47;;;;;;;4.31;0.20;;;;;;;20.85;59.48;98473.38;2008823;81;20235;-83
2021/08/06 14:38:53;;;;;;;0.68;0.20;;;;;;;20.71;60.33;98475.06;2010538;81;20174;-85
2021/08/06 14:57:17;;;;;;;1.39;0.10;;;;;;;22.43;58.89;98478.22;2020294;70;20170;-83
2021/08/06 15:00:20;;;;;;;0.20;0.10;;;;;;;22.50;57.66;98482.16;2016155;80;20211;-83
2021/08/06 15:03:23;;;;;;;1.25;0.10;;;;;;;22.51;57.18;98474.13;2016755;79;20205;-83
2021/08/06 15:06:27;;;;;;;0.69;0.15;;;;;;;22.34;56.37;98479.69;2015652;80;20186;-83
2021/08/06 15:12:56;;;;;;;0.64;0.10;;;;;;;21.99;56.18;98472.28;2222658;70;20255;-85
2021/08/06 15:16:20;;;;;;;0.59;0.17;;;;;;;21.90;56.39;98482.59;2175769;70;21185;-77
2021/08/06 15:19:24;;;;;;;0.77;0.19;;;;;;;21.68;56.30;98478.69;2003249;81;20270;-80
2021/08/06 15:22:26;;;;;;;0.31;0.20;;;;;;;21.55;56.36;98483.09;2003838;81;20779;-79
2021/08/06 15:25:29;;;;;;;2.30;0.15;;;;;;;21.60;57.47;98481.00;2004048;79;20196;-80
2021/08/06 15:28:32;;;;;;;2.50;0.20;;;;;;;21.66;57.35;98483.22;2007630;80;20154;-80
2021/08/06 15:31:34;;;;;;;0.55;0.16;;;;;;;21.62;56.55;98489.66;2004389;78;27245;-81
2021/08/06 15:34:37;;;;;;;1.24;0.20;;;;;;;21.66;57.75;98487.66;2006454;81;20225;-80
2021/08/06 15:37:42;;;;;;;0.93;0.20;;;;;;;21.63;57.94;98480.78;2007382;80;20170;-80
2021/08/06 15:40:57;;;;;;;2.84;0.36;;;;;;;21.69;59.16;98484.81;2009475;80;20275;-81
2021/08/06 15:44:18;;;;;;;0.70;0.17;;;;;;;21.77;58.50;98484.34;2008915;80;20207;-81
2021/08/06 15:47:38;;;;;;;0.75;0.31;;;;;;;22.07;57.96;98481.50;1994106;80;1243757;-79
2021/08/06 15:50:54;;;;;;;0.49;0.20;;;;;;;22.21;56.82;98482.31;2007805;80;20323;-80
2021/08/06 15:53:58;;;;;;;0.80;0.20;;;;;;;22.31;57.48;98480.75;2008914;80;20268;-80
2021/08/06 15:57:10;;;;;;;0.35;0.21;;;;;;;22.29;55.81;98481.81;2007223;81;20209;-80
2021/08/06 16:00:18;;;;;;;0.82;0.20;;;;;;;22.23;55.92;98485.69;2022939;80;20288;-81
2021/08/06 16:04:03;;;;;;;0.30;0.10;;;;;;;22.20;55.43;98482.41;2016156;80;20197;-81
2021/08/06 16:07:06;;;;;;;1.19;0.30;;;;;;;22.15;55.99;98469.50;2015244;80;20208;-81
2021/08/06 16:10:23;;;;;;;1.96;0.20;;;;;;;22.17;56.89;98472.88;2016023;80;20266;-79
2021/08/06 16:14:17;;;;;;;1.69;0.30;;;;;;;21.97;56.18;98470.69;2013243;80;20212;-81
2021/08/06 16:18:50;;;;;;;2.10;0.20;;;;;;;21.71;57.06;98485.56;2006909;79;997271;-80
2021/08/06 16:22:44;;;;;;;0.64;0.20;;;;;;;21.51;57.70;98478.06;2013668;80;20177;-80
2021/08/06 16:26:09;;;;;;;0.30;0.16;;;;;;;21.49;58.80;98477.31;2014395;80;20254;-81
2021/08/06 16:29:12;;;;;;;1.42;0.40;;;;;;;21.60;58.36;98467.78;2010796;80;20225;-80
2021/08/06 16:32:17;;;;;;;1.14;0.24;;;;;;;21.76;59.15;98459.72;2012135;78;25722;-79
2021/08/06 16:35:21;;;;;;;1.50;0.15;;;;;;;21.63;57.73;98466.72;2011016;80;20207;-79
2021/08/06 16:38:30;;;;;;;0.26;0.20;;;;;;;21.56;58.09;98458.34;2012555;80;20188;-79
2021/08/06 16:41:48;;;;;;;0.41;0.13;;;;;;;21.42;58.29;98461.03;2012935;80;20197;-80
2021/08/06 16:45:00;;;;;;;0.41;0.20;;;;;;;21.29;57.88;98453.03;2014364;80;20196;-80
2021/08/06 16:48:03;;;;;;;1.52;0.20;;;;;;;21.23;58.83;98456.03;2001485;77;367769;-81
2021/08/06 16:51:09;;;;;;;1.33;0.15;;;;;;;21.11;59.74;98462.91;2002239;81;20214;-79
2021/08/06 16:54:14;;;;;;;2.65;0.20;;;;;;;21.07;61.70;98456.13;2002186;81;20194;-80
2021/08/06 16:57:19;;;;;;;0.76;0.20;;;;;;;21.03;61.37;98453.78;2003016;81;20171;-80
2021/08/06 17:00:22;;;;;;;1.98;0.20;;;;;;;20.98;61.68;98454.03;2000777;76;277929;-80
2021/08/06 17:03:27;;;;;;;0.73;0.20;;;;;;;20.94;61.76;98456.97;2024570;79;20174;-79
2021/08/06 17:06:31;;;;;;;1.77;0.20;;;;;;;20.91;61.22;98454.53;2005919;81;20295;-80
2021/08/06 17:09:33;;;;;;;0.93;0.30;;;;;;;20.83;62.42;98446.25;2023323;79;20211;-80
2021/08/06 17:12:37;;;;;;;1.89;0.20;;;;;;;20.70;62.05;98439.06;2004271;81;20768;-79
2021/08/06 17:15:39;;;;;;;2.76;0.20;;;;;;;20.68;62.97;98438.31;1957047;80;4671406;-80
2021/08/06 17:19:52;;;;;;;0.74;0.10;;;;;;;20.67;64.13;98443.69;2015063;80;20197;-81
2021/08/06 17:23:55;;;;;;;2.19;0.16;;;;;;;20.69;64.56;98444.44;2015816;80;20246;-81
2021/08/06 17:27:45;;;;;;;2.56;0.20;;;;;;;20.63;63.18;98460.63;2017571;79;20201;-80
2021/08/06 17:31:10;;;;;;;1.84;0.20;;;;;;;20.53;63.60;98452.44;2010073;79;1005963;-81
2021/08/06 17:35:01;;;;;;;;;;;;;;;20.46;63.31;98456.34;2031608;79;20209;-81
2021/08/06 17:39:48;;;;;;;0.36;0.10;;;;;;;20.35;64.88;98443.78;2030673;79;20107;-81
2021/08/06 17:43:30;;;;;;;5.95;0.21;;;;;;;20.22;65.35;98441.03;2030834;80;20203;-81
2021/08/06 17:47:28;;;;;;;2.81;0.26;;;;;;;20.07;65.39;98444.53;1995062;79;3277932;-82
2021/08/06 18:02:59;;;;;;;3.62;0.41;;;;;;;19.68;68.08;98438.94;2005787;70;1034146;-82
2021/08/06 18:07:38;;;;;;;4.04;0.29;;;;;;;19.56;69.99;98436.03;2009929;80;20292;-81